Terminal Aerodrome Forecast
Issued by NWS

Home | Current Version | Previous Version | Text Only | Print | Product List | Glossary On
Versions: 1 2 3 4 5 6 7 8 9 10 11 12 13
000
FTPA31 PHFO 091141
TAFSTU
TAF
NSTU 091141Z 0912/1012 12012KT P6SM VCSH SCT018 SCT040 BKN100=

USA.gov is the U.S. government's official web portal to all federal, state and local government web resources and services.